sensor_id;sensor_type;location;lat;lon;timestamp;P1;durP1;ratioP1;P2;durP2;ratioP2
77597;SDS011;66756;42.774;23.354;2023-02-28T00:00:25;12.55;;;6.15;;
77597;SDS011;66756;42.774;23.354;2023-02-28T00:02:51;15.63;;;6.28;;
77597;SDS011;66756;42.774;23.354;2023-02-28T00:05:18;12.88;;;6.82;;
77597;SDS011;66756;42.774;23.354;2023-02-28T00:07:45;15.38;;;6.78;;
77597;SDS011;66756;42.774;23.354;2023-02-28T00:10:12;16.60;;;6.88;;
77597;SDS011;66756;42.774;23.354;2023-02-28T00:12:39;18.52;;;7.45;;
77597;SDS011;66756;42.774;23.354;2023-02-28T00:15:05;16.10;;;7.30;;
77597;SDS011;66756;42.774;23.354;2023-02-28T00:17:32;16.08;;;6.47;;
77597;SDS011;66756;42.774;23.354;2023-02-28T00:19:58;14.15;;;6.35;;
77597;SDS011;66756;42.774;23.354;2023-02-28T00:22:27;14.88;;;5.95;;
77597;SDS011;66756;42.774;23.354;2023-02-28T00:24:53;14.38;;;6.13;;
77597;SDS011;66756;42.774;23.354;2023-02-28T00:27:19;14.43;;;5.93;;
77597;SDS011;66756;42.774;23.354;2023-02-28T00:29:46;16.95;;;7.20;;
77597;SDS011;66756;42.774;23.354;2023-02-28T00:32:12;16.90;;;8.18;;
77597;SDS011;66756;42.774;23.354;2023-02-28T00:34:38;16.52;;;7.72;;
77597;SDS011;66756;42.774;23.354;2023-02-28T00:37:08;17.40;;;7.65;;
77597;SDS011;66756;42.774;23.354;2023-02-28T00:39:35;19.75;;;8.77;;
77597;SDS011;66756;42.774;23.354;2023-02-28T00:42:01;14.80;;;6.70;;
77597;SDS011;66756;42.774;23.354;2023-02-28T00:44:27;14.23;;;7.13;;
77597;SDS011;66756;42.774;23.354;2023-02-28T00:46:53;18.20;;;8.30;;
77597;SDS011;66756;42.774;23.354;2023-02-28T00:49:20;10.95;;;5.82;;
77597;SDS011;66756;42.774;23.354;2023-02-28T00:51:46;13.30;;;6.32;;
77597;SDS011;66756;42.774;23.354;2023-02-28T00:54:12;12.38;;;6.10;;
77597;SDS011;66756;42.774;23.354;2023-02-28T00:56:38;16.05;;;7.28;;
77597;SDS011;66756;42.774;23.354;2023-02-28T00:59:04;14.95;;;6.82;;
77597;SDS011;66756;42.774;23.354;2023-02-28T01:01:30;16.55;;;8.25;;
77597;SDS011;66756;42.774;23.354;2023-02-28T01:03:56;16.70;;;7.88;;
77597;SDS011;66756;42.774;23.354;2023-02-28T01:06:22;17.15;;;6.90;;
77597;SDS011;66756;42.774;23.354;2023-02-28T01:08:48;16.00;;;7.28;;
77597;SDS011;66756;42.774;23.354;2023-02-28T01:11:16;14.30;;;8.13;;
77597;SDS011;66756;42.774;23.354;2023-02-28T01:13:43;15.40;;;8.77;;
77597;SDS011;66756;42.774;23.354;2023-02-28T01:16:09;17.70;;;7.65;;
77597;SDS011;66756;42.774;23.354;2023-02-28T01:18:35;15.38;;;6.90;;
77597;SDS011;66756;42.774;23.354;2023-02-28T01:21:09;16.88;;;7.53;;
77597;SDS011;66756;42.774;23.354;2023-02-28T01:23:36;18.02;;;8.23;;
77597;SDS011;66756;42.774;23.354;2023-02-28T01:26:06;14.57;;;7.05;;
77597;SDS011;66756;42.774;23.354;2023-02-28T01:28:32;21.73;;;10.20;;
77597;SDS011;66756;42.774;23.354;2023-02-28T01:30:58;16.88;;;8.10;;
77597;SDS011;66756;42.774;23.354;2023-02-28T01:33:24;15.73;;;9.52;;
77597;SDS011;66756;42.774;23.354;2023-02-28T01:35:57;16.08;;;7.60;;
77597;SDS011;66756;42.774;23.354;2023-02-28T01:38:23;16.23;;;7.97;;
77597;SDS011;66756;42.774;23.354;2023-02-28T01:40:49;15.25;;;7.70;;
77597;SDS011;66756;42.774;23.354;2023-02-28T01:43:20;15.57;;;7.90;;
77597;SDS011;66756;42.774;23.354;2023-02-28T01:45:46;14.00;;;6.40;;
77597;SDS011;66756;42.774;23.354;2023-02-28T01:48:12;14.75;;;6.72;;
77597;SDS011;66756;42.774;23.354;2023-02-28T01:50:41;14.68;;;6.35;;
77597;SDS011;66756;42.774;23.354;2023-02-28T01:53:13;11.23;;;5.90;;
77597;SDS011;66756;42.774;23.354;2023-02-28T01:55:40;14.68;;;7.53;;
77597;SDS011;66756;42.774;23.354;2023-02-28T01:58:07;11.65;;;5.85;;
77597;SDS011;66756;42.774;23.354;2023-02-28T02:00:34;10.75;;;5.30;;
77597;SDS011;66756;42.774;23.354;2023-02-28T02:03:07;12.02;;;6.53;;
77597;SDS011;66756;42.774;23.354;2023-02-28T02:05:34;11.57;;;5.65;;
77597;SDS011;66756;42.774;23.354;2023-02-28T02:08:03;10.55;;;5.93;;
77597;SDS011;66756;42.774;23.354;2023-02-28T02:13:39;14.27;;;6.90;;
77597;SDS011;66756;42.774;23.354;2023-02-28T02:16:22;14.23;;;7.03;;
77597;SDS011;66756;42.774;23.354;2023-02-28T02:18:53;14.88;;;7.22;;
77597;SDS011;66756;42.774;23.354;2023-02-28T02:37:15;12.35;;;6.80;;
77597;SDS011;66756;42.774;23.354;2023-02-28T02:42:23;14.95;;;7.10;;
77597;SDS011;66756;42.774;23.354;2023-02-28T02:45:01;15.88;;;7.20;;
77597;SDS011;66756;42.774;23.354;2023-02-28T02:47:29;13.95;;;7.05;;
77597;SDS011;66756;42.774;23.354;2023-02-28T02:49:57;14.40;;;6.93;;
77597;SDS011;66756;42.774;23.354;2023-02-28T02:52:25;13.93;;;6.55;;
77597;SDS011;66756;42.774;23.354;2023-02-28T02:54:54;12.60;;;6.20;;
77597;SDS011;66756;42.774;23.354;2023-02-28T02:57:23;16.20;;;6.63;;
77597;SDS011;66756;42.774;23.354;2023-02-28T02:59:51;13.50;;;6.50;;
77597;SDS011;66756;42.774;23.354;2023-02-28T03:02:18;15.68;;;7.95;;
77597;SDS011;66756;42.774;23.354;2023-02-28T03:04:51;15.38;;;7.15;;
77597;SDS011;66756;42.774;23.354;2023-02-28T03:07:20;11.88;;;5.53;;
77597;SDS011;66756;42.774;23.354;2023-02-28T03:09:54;14.00;;;6.45;;
77597;SDS011;66756;42.774;23.354;2023-02-28T03:12:23;14.65;;;8.40;;
77597;SDS011;66756;42.774;23.354;2023-02-28T03:25:18;14.40;;;5.82;;
77597;SDS011;66756;42.774;23.354;2023-02-28T03:27:49;15.68;;;7.10;;
77597;SDS011;66756;42.774;23.354;2023-02-28T03:35:33;25.33;;;12.68;;
77597;SDS011;66756;42.774;23.354;2023-02-28T03:38:10;26.77;;;13.65;;
77597;SDS011;66756;42.774;23.354;2023-02-28T03:40:38;24.60;;;11.90;;
77597;SDS011;66756;42.774;23.354;2023-02-28T03:43:08;21.73;;;10.45;;
77597;SDS011;66756;42.774;23.354;2023-02-28T03:45:36;17.00;;;9.23;;
77597;SDS011;66756;42.774;23.354;2023-02-28T03:48:07;19.25;;;9.68;;
77597;SDS011;66756;42.774;23.354;2023-02-28T03:50:38;26.10;;;10.40;;
77597;SDS011;66756;42.774;23.354;2023-02-28T03:55:34;53.20;;;12.57;;
77597;SDS011;66756;42.774;23.354;2023-02-28T04:00:27;38.95;;;11.93;;
77597;SDS011;66756;42.774;23.354;2023-02-28T04:02:54;26.13;;;9.90;;
77597;SDS011;66756;42.774;23.354;2023-02-28T04:05:21;46.75;;;11.93;;
77597;SDS011;66756;42.774;23.354;2023-02-28T04:07:48;51.22;;;11.27;;
77597;SDS011;66756;42.774;23.354;2023-02-28T04:10:15;50.83;;;10.15;;
77597;SDS011;66756;42.774;23.354;2023-02-28T04:12:41;58.50;;;9.75;;
77597;SDS011;66756;42.774;23.354;2023-02-28T04:15:08;55.25;;;9.45;;
77597;SDS011;66756;42.774;23.354;2023-02-28T04:17:35;38.17;;;9.13;;
77597;SDS011;66756;42.774;23.354;2023-02-28T04:20:01;58.88;;;11.60;;
77597;SDS011;66756;42.774;23.354;2023-02-28T04:22:28;35.72;;;9.95;;
77597;SDS011;66756;42.774;23.354;2023-02-28T04:24:55;26.27;;;9.65;;
77597;SDS011;66756;42.774;23.354;2023-02-28T04:27:21;38.88;;;12.40;;
77597;SDS011;66756;42.774;23.354;2023-02-28T04:29:47;36.35;;;10.90;;
77597;SDS011;66756;42.774;23.354;2023-02-28T04:32:13;31.08;;;10.30;;
77597;SDS011;66756;42.774;23.354;2023-02-28T04:34:39;26.55;;;11.68;;
77597;SDS011;66756;42.774;23.354;2023-02-28T04:37:05;23.65;;;9.85;;
77597;SDS011;66756;42.774;23.354;2023-02-28T04:39:34;27.83;;;9.43;;
77597;SDS011;66756;42.774;23.354;2023-02-28T04:42:00;22.90;;;8.75;;
77597;SDS011;66756;42.774;23.354;2023-02-28T04:44:26;17.25;;;8.70;;
77597;SDS011;66756;42.774;23.354;2023-02-28T04:46:52;22.30;;;8.80;;
77597;SDS011;66756;42.774;23.354;2023-02-28T04:49:18;22.35;;;9.68;;
77597;SDS011;66756;42.774;23.354;2023-02-28T04:51:44;35.40;;;10.50;;
77597;SDS011;66756;42.774;23.354;2023-02-28T04:54:11;22.15;;;9.43;;
77597;SDS011;66756;42.774;23.354;2023-02-28T04:56:38;26.75;;;10.88;;
77597;SDS011;66756;42.774;23.354;2023-02-28T04:59:04;21.80;;;9.02;;
77597;SDS011;66756;42.774;23.354;2023-02-28T05:01:31;22.25;;;9.25;;
77597;SDS011;66756;42.774;23.354;2023-02-28T05:03:58;21.42;;;9.23;;
77597;SDS011;66756;42.774;23.354;2023-02-28T05:06:25;25.98;;;8.63;;
77597;SDS011;66756;42.774;23.354;2023-02-28T05:08:52;26.70;;;10.35;;
77597;SDS011;66756;42.774;23.354;2023-02-28T05:11:22;29.15;;;10.80;;
77597;SDS011;66756;42.774;23.354;2023-02-28T05:13:50;26.27;;;9.77;;
77597;SDS011;66756;42.774;23.354;2023-02-28T05:16:17;26.08;;;9.15;;
77597;SDS011;66756;42.774;23.354;2023-02-28T05:18:44;42.08;;;10.02;;
77597;SDS011;66756;42.774;23.354;2023-02-28T05:21:28;27.10;;;9.77;;
77597;SDS011;66756;42.774;23.354;2023-02-28T05:23:55;31.77;;;9.93;;
77597;SDS011;66756;42.774;23.354;2023-02-28T05:26:22;46.55;;;11.25;;
77597;SDS011;66756;42.774;23.354;2023-02-28T05:28:48;57.28;;;10.80;;
77597;SDS011;66756;42.774;23.354;2023-02-28T05:31:14;74.40;;;12.70;;
77597;SDS011;66756;42.774;23.354;2023-02-28T05:33:40;64.55;;;12.02;;
77597;SDS011;66756;42.774;23.354;2023-02-28T05:36:06;84.13;;;12.45;;
77597;SDS011;66756;42.774;23.354;2023-02-28T05:38:33;61.22;;;12.38;;
77597;SDS011;66756;42.774;23.354;2023-02-28T05:40:59;72.97;;;12.80;;
77597;SDS011;66756;42.774;23.354;2023-02-28T05:43:25;45.53;;;12.35;;
77597;SDS011;66756;42.774;23.354;2023-02-28T05:45:51;51.80;;;12.15;;
77597;SDS011;66756;42.774;23.354;2023-02-28T05:48:17;59.70;;;13.43;;
77597;SDS011;66756;42.774;23.354;2023-02-28T05:50:43;74.82;;;13.88;;
77597;SDS011;66756;42.774;23.354;2023-02-28T05:53:11;57.00;;;16.38;;
77597;SDS011;66756;42.774;23.354;2023-02-28T05:55:37;90.47;;;19.70;;
77597;SDS011;66756;42.774;23.354;2023-02-28T05:58:03;87.72;;;19.00;;
77597;SDS011;66756;42.774;23.354;2023-02-28T06:00:29;53.65;;;16.63;;
77597;SDS011;66756;42.774;23.354;2023-02-28T06:02:55;53.45;;;14.25;;
77597;SDS011;66756;42.774;23.354;2023-02-28T06:05:24;69.75;;;12.63;;
77597;SDS011;66756;42.774;23.354;2023-02-28T06:07:50;45.80;;;12.88;;
77597;SDS011;66756;42.774;23.354;2023-02-28T06:10:16;31.02;;;11.30;;
77597;SDS011;66756;42.774;23.354;2023-02-28T06:12:42;31.02;;;11.50;;
77597;SDS011;66756;42.774;23.354;2023-02-28T06:15:12;30.60;;;11.90;;
77597;SDS011;66756;42.774;23.354;2023-02-28T06:17:40;27.42;;;11.27;;
77597;SDS011;66756;42.774;23.354;2023-02-28T06:20:06;33.25;;;12.45;;
77597;SDS011;66756;42.774;23.354;2023-02-28T06:22:33;26.58;;;12.32;;
77597;SDS011;66756;42.774;23.354;2023-02-28T06:24:59;41.33;;;14.23;;
77597;SDS011;66756;42.774;23.354;2023-02-28T06:27:25;32.95;;;15.43;;
77597;SDS011;66756;42.774;23.354;2023-02-28T06:29:53;32.42;;;14.65;;
77597;SDS011;66756;42.774;23.354;2023-02-28T06:32:20;27.70;;;13.23;;
77597;SDS011;66756;42.774;23.354;2023-02-28T06:34:46;32.75;;;11.25;;
77597;SDS011;66756;42.774;23.354;2023-02-28T06:37:12;25.52;;;11.70;;
77597;SDS011;66756;42.774;23.354;2023-02-28T06:39:38;25.60;;;10.70;;
77597;SDS011;66756;42.774;23.354;2023-02-28T06:42:04;31.33;;;14.75;;
77597;SDS011;66756;42.774;23.354;2023-02-28T06:44:31;48.55;;;20.08;;
77597;SDS011;66756;42.774;23.354;2023-02-28T06:47:01;30.73;;;12.45;;
77597;SDS011;66756;42.774;23.354;2023-02-28T06:49:30;30.05;;;13.32;;
77597;SDS011;66756;42.774;23.354;2023-02-28T06:51:56;28.55;;;12.75;;
77597;SDS011;66756;42.774;23.354;2023-02-28T06:54:22;32.00;;;13.93;;
77597;SDS011;66756;42.774;23.354;2023-02-28T06:56:48;34.20;;;13.18;;
77597;SDS011;66756;42.774;23.354;2023-02-28T06:59:15;31.05;;;13.65;;
77597;SDS011;66756;42.774;23.354;2023-02-28T07:01:41;26.20;;;11.02;;
77597;SDS011;66756;42.774;23.354;2023-02-28T07:04:07;22.42;;;9.88;;
77597;SDS011;66756;42.774;23.354;2023-02-28T07:06:33;21.42;;;11.10;;
77597;SDS011;66756;42.774;23.354;2023-02-28T07:08:59;16.92;;;8.95;;
77597;SDS011;66756;42.774;23.354;2023-02-28T07:11:26;20.45;;;10.63;;
77597;SDS011;66756;42.774;23.354;2023-02-28T07:13:53;21.88;;;11.02;;
77597;SDS011;66756;42.774;23.354;2023-02-28T07:16:19;18.40;;;9.25;;
77597;SDS011;66756;42.774;23.354;2023-02-28T07:18:45;19.52;;;9.93;;
77597;SDS011;66756;42.774;23.354;2023-02-28T07:21:11;19.30;;;9.70;;
77597;SDS011;66756;42.774;23.354;2023-02-28T07:23:37;21.45;;;9.73;;
77597;SDS011;66756;42.774;23.354;2023-02-28T07:26:04;17.85;;;9.43;;
77597;SDS011;66756;42.774;23.354;2023-02-28T07:28:30;14.73;;;8.65;;
77597;SDS011;66756;42.774;23.354;2023-02-28T07:30:56;13.93;;;7.90;;
77597;SDS011;66756;42.774;23.354;2023-02-28T07:33:23;17.90;;;8.98;;
77597;SDS011;66756;42.774;23.354;2023-02-28T07:35:50;16.70;;;8.05;;
77597;SDS011;66756;42.774;23.354;2023-02-28T07:38:17;16.08;;;8.68;;
77597;SDS011;66756;42.774;23.354;2023-02-28T07:40:45;15.10;;;8.27;;
77597;SDS011;66756;42.774;23.354;2023-02-28T07:43:12;14.77;;;8.48;;
77597;SDS011;66756;42.774;23.354;2023-02-28T07:45:40;14.30;;;7.70;;
77597;SDS011;66756;42.774;23.354;2023-02-28T07:48:08;13.98;;;7.30;;
77597;SDS011;66756;42.774;23.354;2023-02-28T07:50:36;18.10;;;8.27;;
77597;SDS011;66756;42.774;23.354;2023-02-28T07:53:03;15.38;;;8.05;;
77597;SDS011;66756;42.774;23.354;2023-02-28T07:55:30;16.35;;;9.15;;
77597;SDS011;66756;42.774;23.354;2023-02-28T07:57:57;18.50;;;9.57;;
77597;SDS011;66756;42.774;23.354;2023-02-28T08:00:23;18.65;;;9.50;;
77597;SDS011;66756;42.774;23.354;2023-02-28T08:02:50;18.60;;;9.68;;
77597;SDS011;66756;42.774;23.354;2023-02-28T08:05:17;23.35;;;11.10;;
77597;SDS011;66756;42.774;23.354;2023-02-28T08:07:44;21.48;;;10.02;;
77597;SDS011;66756;42.774;23.354;2023-02-28T08:10:10;21.27;;;10.75;;
77597;SDS011;66756;42.774;23.354;2023-02-28T08:12:37;22.98;;;10.98;;
77597;SDS011;66756;42.774;23.354;2023-02-28T08:15:05;23.95;;;11.35;;
77597;SDS011;66756;42.774;23.354;2023-02-28T08:17:33;27.92;;;12.60;;
77597;SDS011;66756;42.774;23.354;2023-02-28T08:20:00;23.27;;;10.88;;
77597;SDS011;66756;42.774;23.354;2023-02-28T08:22:26;23.80;;;11.32;;
77597;SDS011;66756;42.774;23.354;2023-02-28T08:24:53;22.88;;;11.80;;
77597;SDS011;66756;42.774;23.354;2023-02-28T08:27:20;34.65;;;16.15;;
77597;SDS011;66756;42.774;23.354;2023-02-28T08:29:47;39.22;;;17.38;;
77597;SDS011;66756;42.774;23.354;2023-02-28T08:32:14;35.03;;;14.60;;
77597;SDS011;66756;42.774;23.354;2023-02-28T08:34:41;34.25;;;17.42;;
77597;SDS011;66756;42.774;23.354;2023-02-28T08:37:08;32.53;;;15.05;;
77597;SDS011;66756;42.774;23.354;2023-02-28T08:39:35;27.20;;;12.65;;
77597;SDS011;66756;42.774;23.354;2023-02-28T08:42:02;30.88;;;13.40;;
77597;SDS011;66756;42.774;23.354;2023-02-28T08:44:30;27.35;;;12.82;;
77597;SDS011;66756;42.774;23.354;2023-02-28T08:46:57;27.75;;;12.98;;
77597;SDS011;66756;42.774;23.354;2023-02-28T08:49:23;30.05;;;14.13;;
77597;SDS011;66756;42.774;23.354;2023-02-28T08:51:51;33.53;;;15.02;;
77597;SDS011;66756;42.774;23.354;2023-02-28T08:54:19;28.02;;;14.00;;
77597;SDS011;66756;42.774;23.354;2023-02-28T08:56:48;31.15;;;12.15;;
77597;SDS011;66756;42.774;23.354;2023-02-28T08:59:16;28.08;;;14.45;;
77597;SDS011;66756;42.774;23.354;2023-02-28T09:01:44;29.17;;;14.90;;
77597;SDS011;66756;42.774;23.354;2023-02-28T09:04:11;24.25;;;11.52;;
77597;SDS011;66756;42.774;23.354;2023-02-28T09:06:38;28.05;;;14.20;;
77597;SDS011;66756;42.774;23.354;2023-02-28T09:09:06;29.75;;;13.70;;
77597;SDS011;66756;42.774;23.354;2023-02-28T09:11:35;30.13;;;12.40;;
77597;SDS011;66756;42.774;23.354;2023-02-28T09:14:03;29.35;;;12.85;;
77597;SDS011;66756;42.774;23.354;2023-02-28T09:16:31;28.45;;;13.73;;
77597;SDS011;66756;42.774;23.354;2023-02-28T09:18:58;27.05;;;12.95;;
77597;SDS011;66756;42.774;23.354;2023-02-28T09:21:25;32.92;;;15.75;;
77597;SDS011;66756;42.774;23.354;2023-02-28T09:23:52;30.85;;;14.82;;
77597;SDS011;66756;42.774;23.354;2023-02-28T09:26:21;29.67;;;12.50;;
77597;SDS011;66756;42.774;23.354;2023-02-28T09:28:48;31.17;;;14.15;;
77597;SDS011;66756;42.774;23.354;2023-02-28T09:31:16;26.95;;;12.35;;
77597;SDS011;66756;42.774;23.354;2023-02-28T09:33:46;24.40;;;11.93;;
77597;SDS011;66756;42.774;23.354;2023-02-28T09:36:14;24.73;;;14.07;;
77597;SDS011;66756;42.774;23.354;2023-02-28T09:38:41;23.58;;;12.13;;
77597;SDS011;66756;42.774;23.354;2023-02-28T09:41:15;20.40;;;9.02;;
77597;SDS011;66756;42.774;23.354;2023-02-28T09:43:45;23.45;;;9.65;;
77597;SDS011;66756;42.774;23.354;2023-02-28T09:48:51;25.92;;;11.75;;
77597;SDS011;66756;42.774;23.354;2023-02-28T09:53:49;21.77;;;9.65;;
77597;SDS011;66756;42.774;23.354;2023-02-28T09:56:18;22.20;;;11.00;;
77597;SDS011;66756;42.774;23.354;2023-02-28T09:58:53;19.42;;;9.23;;
77597;SDS011;66756;42.774;23.354;2023-02-28T10:06:22;17.98;;;9.73;;
77597;SDS011;66756;42.774;23.354;2023-02-28T10:11:17;21.45;;;12.48;;
77597;SDS011;66756;42.774;23.354;2023-02-28T10:16:13;20.20;;;10.30;;
77597;SDS011;66756;42.774;23.354;2023-02-28T10:18:51;20.60;;;10.75;;
77597;SDS011;66756;42.774;23.354;2023-02-28T10:21:30;20.00;;;10.38;;
77597;SDS011;66756;42.774;23.354;2023-02-28T10:29:10;20.83;;;9.57;;
77597;SDS011;66756;42.774;23.354;2023-02-28T10:31:38;45.10;;;18.48;;
77597;SDS011;66756;42.774;23.354;2023-02-28T10:34:10;40.33;;;14.80;;
77597;SDS011;66756;42.774;23.354;2023-02-28T10:36:40;19.98;;;9.40;;
77597;SDS011;66756;42.774;23.354;2023-02-28T10:41:55;18.42;;;8.32;;
77597;SDS011;66756;42.774;23.354;2023-02-28T10:44:24;23.73;;;10.98;;
77597;SDS011;66756;42.774;23.354;2023-02-28T10:46:52;19.75;;;10.73;;
77597;SDS011;66756;42.774;23.354;2023-02-28T10:49:22;26.30;;;12.07;;
77597;SDS011;66756;42.774;23.354;2023-02-28T10:51:52;25.80;;;12.45;;
77597;SDS011;66756;42.774;23.354;2023-02-28T10:54:24;18.92;;;11.00;;
77597;SDS011;66756;42.774;23.354;2023-02-28T10:57:39;19.45;;;8.65;;
77597;SDS011;66756;42.774;23.354;2023-02-28T10:59:42;17.73;;;7.63;;
77597;SDS011;66756;42.774;23.354;2023-02-28T11:05:26;19.83;;;8.35;;
77597;SDS011;66756;42.774;23.354;2023-02-28T11:10:30;24.40;;;10.63;;
77597;SDS011;66756;42.774;23.354;2023-02-28T11:13:00;17.08;;;8.10;;
77597;SDS011;66756;42.774;23.354;2023-02-28T11:15:28;19.25;;;10.27;;
77597;SDS011;66756;42.774;23.354;2023-02-28T11:20:40;18.65;;;8.57;;
77597;SDS011;66756;42.774;23.354;2023-02-28T11:23:10;16.77;;;8.30;;
77597;SDS011;66756;42.774;23.354;2023-02-28T11:25:38;19.00;;;8.30;;
77597;SDS011;66756;42.774;23.354;2023-02-28T11:28:28;20.48;;;9.55;;
77597;SDS011;66756;42.774;23.354;2023-02-28T11:31:04;23.02;;;10.48;;
77597;SDS011;66756;42.774;23.354;2023-02-28T11:33:48;32.08;;;13.13;;
77597;SDS011;66756;42.774;23.354;2023-02-28T11:38:43;18.92;;;11.13;;
77597;SDS011;66756;42.774;23.354;2023-02-28T11:46:06;27.42;;;12.07;;
77597;SDS011;66756;42.774;23.354;2023-02-28T11:51:23;21.67;;;9.82;;
77597;SDS011;66756;42.774;23.354;2023-02-28T11:58:49;21.60;;;10.43;;
77597;SDS011;66756;42.774;23.354;2023-02-28T12:09:13;16.35;;;9.57;;
77597;SDS011;66756;42.774;23.354;2023-02-28T12:27:12;18.42;;;7.85;;
77597;SDS011;66756;42.774;23.354;2023-02-28T12:29:48;16.48;;;9.35;;
77597;SDS011;66756;42.774;23.354;2023-02-28T12:34:43;18.38;;;8.23;;
77597;SDS011;66756;42.774;23.354;2023-02-28T12:37:12;17.05;;;9.75;;
77597;SDS011;66756;42.774;23.354;2023-02-28T12:39:51;16.48;;;7.30;;
77597;SDS011;66756;42.774;23.354;2023-02-28T12:42:27;17.55;;;9.38;;
77597;SDS011;66756;42.774;23.354;2023-02-28T12:44:56;17.48;;;9.05;;
77597;SDS011;66756;42.774;23.354;2023-02-28T12:56:36;15.10;;;8.02;;
77597;SDS011;66756;42.774;23.354;2023-02-28T13:20:17;21.30;;;9.25;;
77597;SDS011;66756;42.774;23.354;2023-02-28T13:22:47;20.75;;;7.85;;
77597;SDS011;66756;42.774;23.354;2023-02-28T13:27:49;25.33;;;11.05;;
77597;SDS011;66756;42.774;23.354;2023-02-28T13:33:23;15.40;;;7.05;;
77597;SDS011;66756;42.774;23.354;2023-02-28T13:36:00;20.63;;;7.00;;
77597;SDS011;66756;42.774;23.354;2023-02-28T13:38:33;20.52;;;7.50;;
77597;SDS011;66756;42.774;23.354;2023-02-28T13:48:54;18.88;;;7.38;;
77597;SDS011;66756;42.774;23.354;2023-02-28T13:54:14;15.05;;;7.32;;
77597;SDS011;66756;42.774;23.354;2023-02-28T13:57:07;19.58;;;6.90;;
77597;SDS011;66756;42.774;23.354;2023-02-28T14:04:59;19.85;;;7.05;;
77597;SDS011;66756;42.774;23.354;2023-02-28T14:07:27;17.40;;;7.30;;
77597;SDS011;66756;42.774;23.354;2023-02-28T14:10:04;19.98;;;7.97;;
77597;SDS011;66756;42.774;23.354;2023-02-28T14:17:55;12.00;;;4.30;;
77597;SDS011;66756;42.774;23.354;2023-02-28T14:20:21;12.85;;;4.68;;
77597;SDS011;66756;42.774;23.354;2023-02-28T14:22:52;8.55;;;3.72;;
77597;SDS011;66756;42.774;23.354;2023-02-28T14:25:24;9.82;;;3.08;;
77597;SDS011;66756;42.774;23.354;2023-02-28T14:38:06;6.93;;;3.40;;
77597;SDS011;66756;42.774;23.354;2023-02-28T14:40:39;8.30;;;2.70;;
77597;SDS011;66756;42.774;23.354;2023-02-28T14:43:06;5.68;;;2.42;;
77597;SDS011;66756;42.774;23.354;2023-02-28T14:45:43;9.90;;;4.43;;
77597;SDS011;66756;42.774;23.354;2023-02-28T14:48:09;7.68;;;3.08;;
77597;SDS011;66756;42.774;23.354;2023-02-28T14:50:36;9.23;;;3.78;;
77597;SDS011;66756;42.774;23.354;2023-02-28T14:53:03;7.10;;;3.53;;
77597;SDS011;66756;42.774;23.354;2023-02-28T14:55:33;9.80;;;3.35;;
77597;SDS011;66756;42.774;23.354;2023-02-28T14:58:04;9.23;;;3.58;;
77597;SDS011;66756;42.774;23.354;2023-02-28T15:00:42;13.32;;;4.68;;
77597;SDS011;66756;42.774;23.354;2023-02-28T15:03:19;8.85;;;2.60;;
77597;SDS011;66756;42.774;23.354;2023-02-28T15:08:42;4.50;;;1.95;;
77597;SDS011;66756;42.774;23.354;2023-02-28T15:11:08;6.20;;;1.67;;
77597;SDS011;66756;42.774;23.354;2023-02-28T15:13:48;5.68;;;1.25;;
77597;SDS011;66756;42.774;23.354;2023-02-28T15:16:16;7.00;;;1.40;;
77597;SDS011;66756;42.774;23.354;2023-02-28T15:18:45;5.15;;;1.08;;
77597;SDS011;66756;42.774;23.354;2023-02-28T15:21:14;6.13;;;1.75;;
77597;SDS011;66756;42.774;23.354;2023-02-28T15:23:42;4.07;;;1.40;;
77597;SDS011;66756;42.774;23.354;2023-02-28T15:26:14;6.93;;;2.13;;
77597;SDS011;66756;42.774;23.354;2023-02-28T15:28:42;4.43;;;2.05;;
77597;SDS011;66756;42.774;23.354;2023-02-28T15:33:57;3.28;;;1.23;;
77597;SDS011;66756;42.774;23.354;2023-02-28T15:36:25;5.20;;;1.67;;
77597;SDS011;66756;42.774;23.354;2023-02-28T15:38:53;4.38;;;1.42;;
77597;SDS011;66756;42.774;23.354;2023-02-28T15:44:13;4.00;;;0.95;;
77597;SDS011;66756;42.774;23.354;2023-02-28T15:46:37;5.15;;;1.13;;
77597;SDS011;66756;42.774;23.354;2023-02-28T15:49:03;6.05;;;1.00;;
77597;SDS011;66756;42.774;23.354;2023-02-28T15:51:33;3.75;;;1.15;;
77597;SDS011;66756;42.774;23.354;2023-02-28T15:54:01;4.20;;;1.10;;
77597;SDS011;66756;42.774;23.354;2023-02-28T15:56:31;2.45;;;0.73;;
77597;SDS011;66756;42.774;23.354;2023-02-28T15:59:01;3.83;;;1.65;;
77597;SDS011;66756;42.774;23.354;2023-02-28T16:01:28;4.45;;;1.35;;
77597;SDS011;66756;42.774;23.354;2023-02-28T16:03:57;5.53;;;1.45;;
77597;SDS011;66756;42.774;23.354;2023-02-28T16:06:26;3.83;;;1.17;;
77597;SDS011;66756;42.774;23.354;2023-02-28T16:08:55;6.13;;;1.55;;
77597;SDS011;66756;42.774;23.354;2023-02-28T16:11:21;5.30;;;0.95;;
77597;SDS011;66756;42.774;23.354;2023-02-28T16:13:47;4.20;;;1.08;;
77597;SDS011;66756;42.774;23.354;2023-02-28T16:16:17;3.13;;;0.70;;
77597;SDS011;66756;42.774;23.354;2023-02-28T16:18:44;4.53;;;0.82;;
77597;SDS011;66756;42.774;23.354;2023-02-28T16:21:10;5.45;;;0.45;;
77597;SDS011;66756;42.774;23.354;2023-02-28T16:23:36;5.15;;;1.05;;
77597;SDS011;66756;42.774;23.354;2023-02-28T16:26:03;8.63;;;1.60;;
77597;SDS011;66756;42.774;23.354;2023-02-28T16:28:30;5.55;;;0.93;;
77597;SDS011;66756;42.774;23.354;2023-02-28T16:30:57;1.77;;;0.52;;
77597;SDS011;66756;42.774;23.354;2023-02-28T16:33:25;2.15;;;0.60;;
77597;SDS011;66756;42.774;23.354;2023-02-28T16:35:51;2.83;;;0.50;;
77597;SDS011;66756;42.774;23.354;2023-02-28T16:38:17;3.85;;;0.77;;
77597;SDS011;66756;42.774;23.354;2023-02-28T16:40:44;3.15;;;1.33;;
77597;SDS011;66756;42.774;23.354;2023-02-28T16:43:15;2.83;;;0.77;;
77597;SDS011;66756;42.774;23.354;2023-02-28T16:48:11;3.72;;;0.80;;
77597;SDS011;66756;42.774;23.354;2023-02-28T16:50:38;3.35;;;0.52;;
77597;SDS011;66756;42.774;23.354;2023-02-28T16:53:04;3.47;;;0.82;;
77597;SDS011;66756;42.774;23.354;2023-02-28T16:55:30;4.28;;;0.95;;
77597;SDS011;66756;42.774;23.354;2023-02-28T16:57:57;8.40;;;2.50;;
77597;SDS011;66756;42.774;23.354;2023-02-28T17:00:24;8.48;;;3.15;;
77597;SDS011;66756;42.774;23.354;2023-02-28T17:02:50;6.78;;;2.40;;
77597;SDS011;66756;42.774;23.354;2023-02-28T17:05:16;5.68;;;2.28;;
77597;SDS011;66756;42.774;23.354;2023-02-28T17:07:43;4.43;;;1.88;;
77597;SDS011;66756;42.774;23.354;2023-02-28T17:12:36;3.90;;;1.77;;
77597;SDS011;66756;42.774;23.354;2023-02-28T17:15:02;9.20;;;2.47;;
77597;SDS011;66756;42.774;23.354;2023-02-28T17:17:28;4.28;;;1.85;;
77597;SDS011;66756;42.774;23.354;2023-02-28T17:19:55;6.43;;;2.70;;
77597;SDS011;66756;42.774;23.354;2023-02-28T17:22:22;6.85;;;2.78;;
77597;SDS011;66756;42.774;23.354;2023-02-28T17:24:48;8.73;;;3.42;;
77597;SDS011;66756;42.774;23.354;2023-02-28T17:27:14;6.35;;;2.47;;
77597;SDS011;66756;42.774;23.354;2023-02-28T17:29:40;5.90;;;1.52;;
77597;SDS011;66756;42.774;23.354;2023-02-28T17:32:06;7.10;;;1.05;;
77597;SDS011;66756;42.774;23.354;2023-02-28T17:34:32;6.53;;;1.67;;
77597;SDS011;66756;42.774;23.354;2023-02-28T17:36:58;4.53;;;1.48;;
77597;SDS011;66756;42.774;23.354;2023-02-28T17:39:24;17.02;;;5.03;;